Time,TemperatureF,DewpointF,PressureIn,WindDirection,WindDirectionDegrees,WindSpeedMPH,WindSpeedGustMPH,Humidity,HourlyPrecipIn,Conditions,Clouds,dailyrainin,SoftwareType,DateUTC
2013-08-26 00:09:00,55.7,54.6,30.12,SSW,213,0.0,0.0,96,0.00,,,0.49,Wunderground v.1.15,2013-08-26 06:09:00,
2013-08-26 00:14:00,55.7,54.6,30.13,SSW,213,0.0,0.0,96,0.00,,,0.49,Wunderground v.1.15,2013-08-26 06:14:00,
2013-08-26 00:24:00,55.7,54.6,30.13,SSW,213,0.0,0.0,96,0.00,,,0.50,Wunderground v.1.15,2013-08-26 06:24:00,
2013-08-26 00:29:00,55.8,54.7,30.13,SSW,213,0.0,0.0,96,0.00,,,0.50,Wunderground v.1.15,2013-08-26 06:29:00,
2013-08-26 00:34:00,55.7,54.6,30.14,SSW,213,0.0,0.0,96,0.00,,,0.50,Wunderground v.1.15,2013-08-26 06:34:00,
2013-08-26 00:44:00,55.7,54.6,30.14,SSW,213,0.0,0.0,96,0.00,,,0.51,Wunderground v.1.15,2013-08-26 06:44:00,
2013-08-26 00:49:00,55.7,54.6,30.14,SSW,213,0.0,0.0,96,0.00,,,0.51,Wunderground v.1.15,2013-08-26 06:49:00,
2013-08-26 00:54:00,55.7,54.6,30.14,SSW,213,0.0,0.0,96,0.00,,,0.51,Wunderground v.1.15,2013-08-26 06:54:00,
2013-08-26 00:59:00,55.7,54.6,30.14,SSW,213,0.0,0.0,96,0.00,,,0.51,Wunderground v.1.15,2013-08-26 06:59:00,
2013-08-26 01:04:00,55.7,54.6,30.14,SSW,213,0.0,0.0,96,0.00,,,0.00,Wunderground v.1.15,2013-08-26 07:04:00,
2013-08-26 01:14:00,55.7,54.6,30.14,SSW,213,0.0,0.0,96,0.00,,,0.00,Wunderground v.1.15,2013-08-26 07:14:00,
2013-08-26 01:24:00,55.6,54.5,30.14,SSW,213,0.0,0.0,96,0.00,,,0.00,Wunderground v.1.15,2013-08-26 07:24:00,
2013-08-26 01:34:00,55.6,54.5,30.14,SSW,213,0.0,0.0,96,0.00,,,0.00,Wunderground v.1.15,2013-08-26 07:34:00,
2013-08-26 01:39:00,55.6,54.5,30.14,SSW,213,0.0,0.0,96,0.00,,,0.00,Wunderground v.1.15,2013-08-26 07:39:00,
2013-08-26 01:44:00,55.6,54.5,30.13,SSW,213,0.0,0.0,96,0.00,,,0.00,Wunderground v.1.15,2013-08-26 07:44:00,
2013-08-26 01:49:00,55.5,54.4,30.13,SSW,213,0.0,0.0,96,0.00,,,0.00,Wunderground v.1.15,2013-08-26 07:49:00,
2013-08-26 01:59:00,55.5,54.4,30.13,SSW,213,0.0,0.0,96,0.00,,,0.00,Wunderground v.1.15,2013-08-26 07:59:00,
2013-08-26 02:04:00,55.5,54.4,30.13,SSW,213,0.0,0.0,96,0.00,,,0.00,Wunderground v.1.15,2013-08-26 08:04:00,
2013-08-26 02:09:00,55.5,54.4,30.13,SSW,213,0.0,0.0,96,0.00,,,0.00,Wunderground v.1.15,2013-08-26 08:09:00,
2013-08-26 02:14:00,55.5,54.4,30.13,SSW,213,0.0,0.0,96,0.00,,,0.00,Wunderground v.1.15,2013-08-26 08:14:00,
2013-08-26 02:24:00,55.5,54.4,30.13,SSW,213,0.0,0.0,96,0.00,,,0.00,Wunderground v.1.15,2013-08-26 08:24:00,
2013-08-26 02:29:00,55.5,54.4,30.13,SSW,213,0.0,0.0,96,0.00,,,0.00,Wunderground v.1.15,2013-08-26 08:29:00,
2013-08-26 02:34:00,55.5,54.4,30.13,SSW,213,0.0,0.0,96,0.00,,,0.00,Wunderground v.1.15,2013-08-26 08:34:00,
2013-08-26 02:44:00,55.5,54.4,30.13,SSW,213,0.0,0.0,96,0.00,,,0.00,Wunderground v.1.15,2013-08-26 08:44:00,
2013-08-26 02:49:00,55.5,54.4,30.13,SSW,213,0.0,0.0,96,0.20,,,0.02,Wunderground v.1.15,2013-08-26 08:49:00,
2013-08-26 02:59:00,55.5,54.4,30.14,SSW,213,0.0,0.0,96,0.05,,,0.03,Wunderground v.1.15,2013-08-26 08:59:00,
2013-08-26 03:04:00,55.5,54.4,30.14,SSW,213,0.0,0.0,96,0.05,,,0.03,Wunderground v.1.15,2013-08-26 09:04:00,
2013-08-26 03:14:00,55.5,54.4,30.13,SSW,213,0.0,0.0,96,0.08,,,0.05,Wunderground v.1.15,2013-08-26 09:14:00,
2013-08-26 03:24:00,55.6,54.5,30.13,SSW,213,0.0,0.0,96,0.09,,,0.06,Wunderground v.1.15,2013-08-26 09:24:00,
2013-08-26 03:34:00,55.5,54.4,30.13,SSW,213,0.0,0.0,96,0.06,,,0.07,Wunderground v.1.15,2013-08-26 09:34:00,
2013-08-26 03:39:00,55.5,54.4,30.13,SSW,213,0.0,0.0,96,0.04,,,0.07,Wunderground v.1.15,2013-08-26 09:39:00,
2013-08-26 03:44:00,55.5,54.4,30.13,SSW,213,0.0,0.0,96,0.04,,,0.08,Wunderground v.1.15,2013-08-26 09:44:00,
2013-08-26 03:54:00,55.5,54.4,30.12,SSW,213,0.0,0.0,96,0.04,,,0.08,Wunderground v.1.15,2013-08-26 09:54:00,
2013-08-26 03:59:00,55.5,54.4,30.13,SSW,213,0.0,0.0,96,0.00,,,0.08,Wunderground v.1.15,2013-08-26 09:59:00,
2013-08-26 04:04:00,55.5,54.4,30.13,SSW,213,0.0,0.0,96,0.00,,,0.08,Wunderground v.1.15,2013-08-26 10:04:00,
2013-08-26 04:14:00,55.5,54.4,30.13,SSW,213,0.0,0.0,96,0.00,,,0.08,Wunderground v.1.15,2013-08-26 10:14:00,
2013-08-26 04:24:00,55.5,54.4,30.12,SSW,213,0.0,0.0,96,0.00,,,0.08,Wunderground v.1.15,2013-08-26 10:24:00,
2013-08-26 04:29:00,55.5,54.4,30.12,SSW,213,0.0,0.0,96,0.00,,,0.09,Wunderground v.1.15,2013-08-26 10:29:00,
2013-08-26 04:34:00,55.4,54.3,30.13,SSW,213,0.0,0.0,96,0.00,,,0.09,Wunderground v.1.15,2013-08-26 10:34:00,
2013-08-26 04:39:00,55.4,54.3,30.12,SSW,213,0.0,0.0,96,0.00,,,0.09,Wunderground v.1.15,2013-08-26 10:39:00,
2013-08-26 04:49:00,55.4,54.3,30.12,SSW,213,0.0,0.0,96,0.00,,,0.09,Wunderground v.1.15,2013-08-26 10:49:00,
2013-08-26 04:54:00,55.4,54.3,30.12,SSW,213,0.0,0.0,96,0.00,,,0.09,Wunderground v.1.15,2013-08-26 10:54:00,
2013-08-26 04:59:00,55.4,54.3,30.12,SSW,213,0.0,0.0,96,0.00,,,0.09,Wunderground v.1.15,2013-08-26 10:59:00,
2013-08-26 05:09:00,55.3,54.2,30.12,SSW,213,0.0,0.0,96,0.00,,,0.09,Wunderground v.1.15,2013-08-26 11:09:00,
2013-08-26 05:14:00,55.3,54.2,30.12,SSW,213,0.0,0.0,96,0.00,,,0.09,Wunderground v.1.15,2013-08-26 11:14:00,
2013-08-26 05:24:00,55.3,54.2,30.12,SSW,213,0.0,0.0,96,0.00,,,0.09,Wunderground v.1.15,2013-08-26 11:24:00,
2013-08-26 05:34:00,55.2,54.1,30.12,SSW,213,0.0,0.0,96,0.00,,,0.09,Wunderground v.1.15,2013-08-26 11:34:00,
2013-08-26 05:44:00,55.1,54.0,30.12,SSW,213,0.0,0.0,96,0.00,,,0.09,Wunderground v.1.15,2013-08-26 11:44:00,
2013-08-26 05:49:00,55.0,53.9,30.12,SSW,213,0.0,0.0,96,0.00,,,0.09,Wunderground v.1.15,2013-08-26 11:49:00,
2013-08-26 05:59:00,54.8,53.7,30.12,SSW,213,0.0,0.0,96,0.00,,,0.09,Wunderground v.1.15,2013-08-26 11:59:00,
2013-08-26 06:04:00,54.8,53.7,30.12,SSW,213,0.0,0.0,96,0.00,,,0.09,Wunderground v.1.15,2013-08-26 12:04:00,
2013-08-26 06:09:00,54.8,53.7,30.12,SSW,213,0.0,0.0,96,0.00,,,0.09,Wunderground v.1.15,2013-08-26 12:09:00,
2013-08-26 06:15:00,54.7,53.6,30.12,SSW,213,0.0,0.0,96,0.00,,,0.09,Wunderground v.1.15,2013-08-26 12:15:00,
2013-08-26 06:24:00,54.7,53.6,30.12,SSW,213,0.0,0.0,96,0.00,,,0.09,Wunderground v.1.15,2013-08-26 12:24:00,
2013-08-26 06:29:00,54.7,53.6,30.12,SSW,213,0.0,0.0,96,0.00,,,0.09,Wunderground v.1.15,2013-08-26 12:29:00,
2013-08-26 06:34:00,54.7,53.6,30.12,SSW,213,0.0,0.0,96,0.00,,,0.09,Wunderground v.1.15,2013-08-26 12:34:00,
2013-08-26 06:44:00,54.5,53.4,30.12,SSW,213,0.0,0.0,96,0.00,,,0.09,Wunderground v.1.15,2013-08-26 12:44:00,
2013-08-26 06:49:00,54.4,53.3,30.12,SSW,213,0.0,0.0,96,0.00,,,0.09,Wunderground v.1.15,2013-08-26 12:49:00,
2013-08-26 06:59:00,54.3,53.2,30.12,SSW,213,0.0,0.0,96,0.00,,,0.09,Wunderground v.1.15,2013-08-26 12:59:00,
2013-08-26 07:04:00,54.3,53.2,30.13,SSW,213,0.0,0.0,96,0.00,,,0.09,Wunderground v.1.15,2013-08-26 13:04:00,
2013-08-26 07:09:00,54.2,53.1,30.13,SSW,213,0.0,0.0,96,0.00,,,0.09,Wunderground v.1.15,2013-08-26 13:09:00,
2013-08-26 07:15:00,54.1,53.0,30.13,SSW,213,0.0,0.0,96,0.00,,,0.09,Wunderground v.1.15,2013-08-26 13:15:00,
2013-08-26 07:24:00,54.2,53.1,30.13,SSW,213,0.0,0.0,96,0.00,,,0.09,Wunderground v.1.15,2013-08-26 13:24:00,
2013-08-26 07:29:00,54.2,53.1,30.13,SSW,213,0.0,0.0,96,0.00,,,0.09,Wunderground v.1.15,2013-08-26 13:29:00,
2013-08-26 07:34:00,54.3,53.2,30.13,SSW,213,0.0,0.0,96,0.00,,,0.09,Wunderground v.1.15,2013-08-26 13:34:00,
2013-08-26 07:39:00,54.2,53.1,30.13,SSW,213,0.0,0.0,96,0.00,,,0.09,Wunderground v.1.15,2013-08-26 13:39:00,
2013-08-26 07:44:00,54.3,53.2,30.13,SSW,213,0.0,0.0,96,0.00,,,0.09,Wunderground v.1.15,2013-08-26 13:44:00,
2013-08-26 07:49:00,54.4,53.3,30.13,SSW,213,0.0,0.0,96,0.00,,,0.09,Wunderground v.1.15,2013-08-26 13:49:00,
2013-08-26 07:54:00,54.4,53.3,30.13,SSW,213,0.0,0.0,96,0.00,,,0.09,Wunderground v.1.15,2013-08-26 13:54:00,
2013-08-26 08:04:00,54.6,53.5,30.13,SSW,213,0.0,0.0,96,0.00,,,0.09,Wunderground v.1.15,2013-08-26 14:04:00,
2013-08-26 08:09:00,54.8,53.7,30.13,SSW,213,0.0,0.0,96,0.00,,,0.09,Wunderground v.1.15,2013-08-26 14:09:00,
2013-08-26 08:15:00,54.9,54.1,30.13,SSW,213,0.0,0.0,97,0.00,,,0.09,Wunderground v.1.15,2013-08-26 14:15:00,
2013-08-26 08:24:00,55.3,54.2,30.13,SSW,213,0.0,0.0,96,0.00,,,0.09,Wunderground v.1.15,2013-08-26 14:24:00,
2013-08-26 08:34:00,55.9,55.1,30.13,SSW,213,0.0,0.0,97,0.00,,,0.09,Wunderground v.1.15,2013-08-26 14:34:00,
2013-08-26 08:44:00,56.4,55.6,30.13,SSW,213,0.0,0.0,97,0.00,,,0.09,Wunderground v.1.15,2013-08-26 14:44:00,
2013-08-26 08:49:00,56.6,55.8,30.12,SSW,213,0.0,0.0,97,0.00,,,0.09,Wunderground v.1.15,2013-08-26 14:49:00,
2013-08-26 08:59:00,57.1,56.3,30.13,SSW,213,0.0,0.0,97,0.00,,,0.09,Wunderground v.1.15,2013-08-26 14:59:00,
2013-08-26 09:04:00,57.4,56.6,30.13,SSW,213,0.0,0.0,97,0.00,,,0.09,Wunderground v.1.15,2013-08-26 15:04:00,
2013-08-26 09:15:00,57.8,57.0,30.12,SSW,213,0.0,0.0,97,0.00,,,0.09,Wunderground v.1.15,2013-08-26 15:15:00,
2013-08-26 09:24:00,58.8,58.0,30.13,SSW,213,0.0,0.0,97,0.00,,,0.09,Wunderground v.1.15,2013-08-26 15:24:00,
2013-08-26 09:34:00,59.5,58.1,30.13,SSW,213,0.0,0.0,95,0.00,,,0.09,Wunderground v.1.15,2013-08-26 15:34:00,
2013-08-26 09:39:00,59.4,57.7,30.13,SSW,213,0.0,0.0,94,0.00,,,0.09,Wunderground v.1.15,2013-08-26 15:39:00,
2013-08-26 09:44:00,59.8,57.8,30.13,SSW,213,0.0,0.0,93,0.00,,,0.09,Wunderground v.1.15,2013-08-26 15:44:00,
2013-08-26 09:49:00,61.0,58.7,30.13,SSW,213,0.0,0.0,92,0.00,,,0.09,Wunderground v.1.15,2013-08-26 15:49:00,
2013-08-26 09:54:00,61.8,58.5,30.13,SSW,213,0.0,0.0,89,0.00,,,0.09,Wunderground v.1.15,2013-08-26 15:54:00,
2013-08-26 09:59:00,62.6,59.0,30.13,SSW,213,0.0,0.0,88,0.00,,,0.09,Wunderground v.1.15,2013-08-26 15:59:00,
2013-08-26 10:04:00,63.6,58.3,30.13,SSW,213,0.0,0.0,83,0.00,,,0.09,Wunderground v.1.15,2013-08-26 16:04:00,
2013-08-26 10:15:00,65.3,57.2,30.13,SSW,213,0.0,0.0,75,0.00,,,0.09,Wunderground v.1.15,2013-08-26 16:15:00,
2013-08-26 10:24:00,66.7,58.9,30.13,SSW,213,0.0,0.0,76,0.00,,,0.09,Wunderground v.1.15,2013-08-26 16:24:00,
2013-08-26 10:29:00,66.0,58.6,30.13,SSW,213,0.0,0.0,77,0.00,,,0.09,Wunderground v.1.15,2013-08-26 16:29:00,
2013-08-26 10:39:00,65.4,58.7,30.12,SSW,213,0.0,0.0,79,0.00,,,0.09,Wunderground v.1.15,2013-08-26 16:39:00,
2013-08-26 10:44:00,65.5,59.2,30.12,SSW,213,0.0,0.0,80,0.00,,,0.09,Wunderground v.1.15,2013-08-26 16:44:00,
2013-08-26 10:54:00,66.3,60.6,30.12,SSW,213,0.0,0.0,82,0.00,,,0.09,Wunderground v.1.15,2013-08-26 16:54:00,
2013-08-26 11:04:00,66.5,58.0,30.11,SSW,213,0.0,0.0,74,0.00,,,0.09,Wunderground v.1.15,2013-08-26 17:04:00,
2013-08-26 11:14:00,65.6,59.3,30.11,SSW,213,0.0,0.0,80,0.00,,,0.09,Wunderground v.1.15,2013-08-26 17:14:00,
2013-08-26 11:24:00,66.3,57.4,30.10,SSW,213,0.0,0.0,73,0.00,,,0.09,Wunderground v.1.15,2013-08-26 17:24:00,
2013-08-26 11:29:00,66.4,57.9,30.10,SSW,213,0.0,0.0,74,0.00,,,0.09,Wunderground v.1.15,2013-08-26 17:29:00,
2013-08-26 11:39:00,66.0,57.8,30.10,SSW,213,0.0,0.0,75,0.00,,,0.09,Wunderground v.1.15,2013-08-26 17:39:00,
2013-08-26 11:44:00,65.5,56.2,30.10,SSW,213,0.0,0.0,72,0.00,,,0.09,Wunderground v.1.15,2013-08-26 17:44:00,
2013-08-26 11:49:00,65.4,56.5,30.10,SSW,213,0.0,0.0,73,0.00,,,0.09,Wunderground v.1.15,2013-08-26 17:49:00,
2013-08-26 11:54:00,65.6,57.1,30.09,SSW,213,0.0,0.0,74,0.00,,,0.09,Wunderground v.1.15,2013-08-26 17:54:00,
2013-08-26 11:59:00,65.9,58.5,30.09,SSW,213,0.0,0.0,77,0.00,,,0.09,Wunderground v.1.15,2013-08-26 17:59:00,
2013-08-26 12:04:00,66.2,58.0,30.09,SSW,213,0.0,0.0,75,0.00,,,0.09,Wunderground v.1.15,2013-08-26 18:04:00,
2013-08-26 12:09:00,66.3,58.5,30.08,SSW,213,0.0,0.0,76,0.00,,,0.09,Wunderground v.1.15,2013-08-26 18:09:00,
2013-08-26 12:14:00,66.5,58.7,30.08,SSW,213,0.0,0.0,76,0.00,,,0.09,Wunderground v.1.15,2013-08-26 18:14:00,
2013-08-26 12:24:00,65.8,58.4,30.08,SSW,213,0.0,0.0,77,0.00,,,0.09,Wunderground v.1.15,2013-08-26 18:24:00,
2013-08-26 12:29:00,65.7,57.9,30.08,SSW,213,0.0,0.0,76,0.00,,,0.09,Wunderground v.1.15,2013-08-26 18:29:00,
2013-08-26 12:39:00,65.6,57.5,30.08,SSW,213,0.0,0.0,75,0.00,,,0.09,Wunderground v.1.15,2013-08-26 18:39:00,
2013-08-26 12:49:00,65.9,57.7,30.08,SSW,213,0.0,0.0,75,0.00,,,0.09,Wunderground v.1.15,2013-08-26 18:49:00,
2013-08-26 12:54:00,66.1,59.0,30.08,SSW,213,0.0,0.0,78,0.00,,,0.09,Wunderground v.1.15,2013-08-26 18:54:00,
2013-08-26 12:59:00,67.1,60.0,30.07,SSW,213,0.0,0.0,78,0.00,,,0.09,Wunderground v.1.15,2013-08-26 18:59:00,
2013-08-26 13:04:00,68.6,61.5,30.07,SSW,213,0.0,0.0,78,0.00,,,0.09,Wunderground v.1.15,2013-08-26 19:04:00,
2013-08-26 13:14:00,69.4,55.8,30.07,SSW,213,0.0,0.0,62,0.00,,,0.09,Wunderground v.1.15,2013-08-26 19:14:00,
2013-08-26 13:24:00,69.6,58.6,30.06,SSW,213,0.0,0.0,68,0.00,,,0.09,Wunderground v.1.15,2013-08-26 19:24:00,
2013-08-26 13:29:00,70.6,57.8,30.06,SSW,213,0.0,0.0,64,0.00,,,0.09,Wunderground v.1.15,2013-08-26 19:29:00,
2013-08-26 13:39:00,71.3,57.2,30.06,East,82,0.0,0.0,61,0.00,,,0.09,Wunderground v.1.15,2013-08-26 19:39:00,
2013-08-26 13:44:00,72.2,57.5,30.06,SE,132,0.0,0.0,60,0.00,,,0.09,Wunderground v.1.15,2013-08-26 19:44:00,
2013-08-26 13:54:00,73.4,55.7,30.06,SW,225,0.0,0.0,54,0.00,,,0.09,Wunderground v.1.15,2013-08-26 19:54:00,
2013-08-26 13:59:00,73.3,54.1,30.06,SSW,193,0.0,0.0,51,0.00,,,0.09,Wunderground v.1.15,2013-08-26 19:59:00,
2013-08-26 14:04:00,72.7,55.1,30.06,South,171,0.0,0.0,54,0.00,,,0.09,Wunderground v.1.15,2013-08-26 20:04:00,
2013-08-26 14:14:00,73.0,56.9,30.05,South,172,0.0,0.0,57,0.00,,,0.09,Wunderground v.1.15,2013-08-26 20:14:00,
2013-08-26 14:24:00,74.2,53.2,30.04,South,187,0.0,0.0,48,0.00,,,0.09,Wunderground v.1.15,2013-08-26 20:24:00,
2013-08-26 14:29:00,74.2,56.5,30.03,South,187,0.0,0.0,54,0.00,,,0.09,Wunderground v.1.15,2013-08-26 20:29:00,
2013-08-26 14:34:00,74.0,54.7,30.03,South,187,0.0,0.0,51,0.00,,,0.09,Wunderground v.1.15,2013-08-26 20:34:00,
2013-08-26 14:39:00,73.9,56.2,30.02,South,187,0.0,0.0,54,0.00,,,0.09,Wunderground v.1.15,2013-08-26 20:39:00,
2013-08-26 14:49:00,74.9,57.6,30.02,South,187,0.0,0.0,55,0.00,,,0.09,Wunderground v.1.15,2013-08-26 20:49:00,
2013-08-26 14:54:00,75.8,56.4,30.02,South,187,0.0,0.0,51,0.00,,,0.09,Wunderground v.1.15,2013-08-26 20:54:00,
2013-08-26 14:59:00,76.3,55.2,30.01,SSW,192,0.0,0.0,48,0.00,,,0.09,Wunderground v.1.15,2013-08-26 20:59:00,
2013-08-26 15:04:00,76.7,55.0,30.01,SSW,192,0.0,0.0,47,0.00,,,0.09,Wunderground v.1.15,2013-08-26 21:04:00,
2013-08-26 15:09:00,76.7,55.0,30.01,SSW,192,0.0,0.0,47,0.00,,,0.09,Wunderground v.1.15,2013-08-26 21:09:00,
2013-08-26 15:14:00,76.6,56.0,30.01,SSW,192,0.0,0.0,49,0.00,,,0.09,Wunderground v.1.15,2013-08-26 21:14:00,
2013-08-26 15:24:00,77.2,52.3,30.00,SSE,150,0.0,0.0,42,0.00,,,0.09,Wunderground v.1.15,2013-08-26 21:24:00,
2013-08-26 15:29:00,77.6,52.0,30.00,South,175,0.0,0.0,41,0.00,,,0.09,Wunderground v.1.15,2013-08-26 21:29:00,
2013-08-26 15:34:00,77.5,53.2,30.00,South,177,0.0,0.0,43,0.00,,,0.09,Wunderground v.1.15,2013-08-26 21:34:00,
2013-08-26 15:39:00,77.3,53.7,30.00,South,177,0.0,0.0,44,0.00,,,0.09,Wunderground v.1.15,2013-08-26 21:39:00,
2013-08-26 15:49:00,77.4,51.2,30.00,South,181,0.0,0.0,40,0.00,,,0.09,Wunderground v.1.15,2013-08-26 21:49:00,
2013-08-26 15:54:00,76.9,52.1,30.00,South,181,0.0,0.0,42,0.00,,,0.09,Wunderground v.1.15,2013-08-26 21:54:00,
2013-08-26 15:59:00,76.8,52.6,30.00,South,180,0.0,0.0,43,0.00,,,0.09,Wunderground v.1.15,2013-08-26 21:59:00,
2013-08-26 16:04:00,76.8,52.0,30.00,South,180,0.0,0.0,42,0.00,,,0.09,Wunderground v.1.15,2013-08-26 22:04:00,
2013-08-26 16:14:00,76.2,50.8,29.99,South,180,0.0,0.0,41,0.00,,,0.09,Wunderground v.1.15,2013-08-26 22:14:00,
2013-08-26 16:24:00,75.5,49.5,29.99,South,180,0.0,0.0,40,0.00,,,0.09,Wunderground v.1.15,2013-08-26 22:24:00,
2013-08-26 16:29:00,75.2,50.5,29.99,South,180,0.0,0.0,42,0.00,,,0.09,Wunderground v.1.15,2013-08-26 22:29:00,
2013-08-26 16:34:00,74.9,50.3,29.99,SE,140,0.0,0.0,42,0.00,,,0.09,Wunderground v.1.15,2013-08-26 22:34:00,
2013-08-26 16:39:00,74.4,52.3,29.98,SE,141,0.0,0.0,46,0.00,,,0.09,Wunderground v.1.15,2013-08-26 22:39:00,
2013-08-26 16:44:00,74.1,52.0,29.98,SE,141,0.0,0.0,46,0.00,,,0.09,Wunderground v.1.15,2013-08-26 22:44:00,
2013-08-26 16:49:00,73.9,51.2,29.98,SE,141,0.0,0.0,45,0.00,,,0.09,Wunderground v.1.15,2013-08-26 22:49:00,
2013-08-26 16:59:00,73.6,51.5,29.98,SE,141,0.0,0.0,46,0.00,,,0.09,Wunderground v.1.15,2013-08-26 22:59:00,
2013-08-26 17:04:00,73.5,52.0,29.98,SE,141,0.0,0.0,47,0.00,,,0.09,Wunderground v.1.15,2013-08-26 23:04:00,
2013-08-26 17:09:00,73.3,52.4,29.98,SE,141,0.0,0.0,48,0.00,,,0.09,Wunderground v.1.15,2013-08-26 23:09:00,
2013-08-26 17:14:00,73.1,52.2,29.97,SE,141,0.0,0.0,48,0.00,,,0.09,Wunderground v.1.15,2013-08-26 23:14:00,
2013-08-26 17:24:00,72.7,51.9,29.97,SE,141,0.0,0.0,48,0.00,,,0.09,Wunderground v.1.15,2013-08-26 23:24:00,
2013-08-26 17:29:00,72.5,51.7,29.97,SE,141,0.0,0.0,48,0.00,,,0.09,Wunderground v.1.15,2013-08-26 23:29:00,
2013-08-26 17:39:00,72.5,52.2,29.96,SE,141,0.0,0.0,49,0.00,,,0.09,Wunderground v.1.15,2013-08-26 23:39:00,
2013-08-26 17:49:00,72.3,50.4,29.96,SE,141,0.0,0.0,46,0.00,,,0.09,Wunderground v.1.15,2013-08-26 23:49:00,
2013-08-26 17:54:00,72.1,54.5,29.95,SE,141,0.0,0.0,54,0.00,,,0.09,Wunderground v.1.15,2013-08-26 23:54:00,
2013-08-26 17:59:00,71.8,56.7,29.95,SE,141,0.0,0.0,59,0.00,,,0.09,Wunderground v.1.15,2013-08-26 23:59:00,
2013-08-26 18:04:00,71.3,55.8,29.95,SE,141,0.0,0.0,58,0.00,,,0.09,Wunderground v.1.15,2013-08-27 00:04:00,
2013-08-26 18:09:00,70.8,56.7,29.94,SE,141,0.0,0.0,61,0.00,,,0.09,Wunderground v.1.15,2013-08-27 00:09:00,
2013-08-26 18:14:00,70.1,55.6,29.94,SE,141,0.0,0.0,60,0.00,,,0.09,Wunderground v.1.15,2013-08-27 00:14:00,
2013-08-26 18:24:00,68.6,55.1,29.94,SE,141,0.0,0.0,62,0.00,,,0.09,Wunderground v.1.15,2013-08-27 00:24:00,
2013-08-26 18:29:00,68.0,54.9,29.93,SE,141,0.0,0.0,63,0.00,,,0.09,Wunderground v.1.15,2013-08-27 00:29:00,
2013-08-26 18:34:00,67.4,55.2,29.93,SE,141,0.0,0.0,65,0.00,,,0.09,Wunderground v.1.15,2013-08-27 00:34:00,
2013-08-26 18:44:00,66.5,53.9,29.93,SE,141,0.0,0.0,64,0.00,,,0.09,Wunderground v.1.15,2013-08-27 00:44:00,
2013-08-26 18:54:00,65.4,55.7,29.94,SE,141,0.0,0.0,71,0.00,,,0.09,Wunderground v.1.15,2013-08-27 00:54:00,
2013-08-26 19:04:00,64.1,55.3,29.93,SE,141,0.0,0.0,73,0.00,,,0.09,Wunderground v.1.15,2013-08-27 01:04:00,
2013-08-26 19:14:00,62.9,53.4,29.94,SE,141,0.0,0.0,71,0.00,,,0.09,Wunderground v.1.15,2013-08-27 01:14:00,
2013-08-26 19:24:00,62.1,54.1,29.94,SE,141,0.0,0.0,75,0.00,,,0.09,Wunderground v.1.15,2013-08-27 01:24:00,
2013-08-26 19:29:00,61.7,53.0,29.94,SE,141,0.0,0.0,73,0.00,,,0.09,Wunderground v.1.15,2013-08-27 01:29:00,
2013-08-26 19:34:00,61.5,52.0,29.94,SE,141,0.0,0.0,71,0.00,,,0.09,Wunderground v.1.15,2013-08-27 01:34:00,
2013-08-26 19:44:00,61.0,53.0,29.94,SE,141,0.0,0.0,75,0.00,,,0.09,Wunderground v.1.15,2013-08-27 01:44:00,
2013-08-26 19:49:00,60.5,52.2,29.94,SE,141,0.0,0.0,74,0.00,,,0.09,Wunderground v.1.15,2013-08-27 01:49:00,
2013-08-26 19:59:00,60.0,51.3,29.95,SE,141,0.0,0.0,73,0.00,,,0.09,Wunderground v.1.15,2013-08-27 01:59:00,
2013-08-26 20:04:00,59.8,51.5,29.95,SE,141,0.0,0.0,74,0.00,,,0.09,Wunderground v.1.15,2013-08-27 02:04:00,
2013-08-26 20:09:00,59.6,50.9,29.95,SE,141,0.0,0.0,73,0.00,,,0.09,Wunderground v.1.15,2013-08-27 02:09:00,
2013-08-26 20:14:00,59.7,50.3,29.95,SE,141,0.0,0.0,71,0.00,,,0.09,Wunderground v.1.15,2013-08-27 02:14:00,
2013-08-26 20:24:00,59.5,50.8,29.96,SE,141,0.0,0.0,73,0.00,,,0.09,Wunderground v.1.15,2013-08-27 02:24:00,
2013-08-26 20:29:00,59.5,50.8,29.96,SE,141,0.0,0.0,73,0.00,,,0.09,Wunderground v.1.15,2013-08-27 02:29:00,
2013-08-26 20:39:00,59.5,50.8,29.96,SE,141,0.0,0.0,73,0.00,,,0.09,Wunderground v.1.15,2013-08-27 02:39:00,
2013-08-26 20:44:00,59.4,50.7,29.97,SE,141,0.0,0.0,73,0.00,,,0.09,Wunderground v.1.15,2013-08-27 02:44:00,
2013-08-26 20:49:00,59.2,50.5,29.97,SE,141,0.0,0.0,73,0.00,,,0.09,Wunderground v.1.15,2013-08-27 02:49:00,
2013-08-26 20:59:00,59.0,50.7,29.97,SE,141,0.0,0.0,74,0.00,,,0.09,Wunderground v.1.15,2013-08-27 02:59:00,
2013-08-26 21:04:00,59.0,50.7,29.97,SE,141,0.0,0.0,74,0.00,,,0.09,Wunderground v.1.15,2013-08-27 03:04:00,
2013-08-26 21:09:00,59.0,50.4,29.98,SE,141,0.0,0.0,73,0.00,,,0.09,Wunderground v.1.15,2013-08-27 03:09:00,
2013-08-26 21:14:00,59.0,50.0,29.98,SE,141,0.0,0.0,72,0.00,,,0.09,Wunderground v.1.15,2013-08-27 03:14:00,
2013-08-26 21:24:00,59.0,51.1,29.98,SE,141,0.0,0.0,75,0.00,,,0.09,Wunderground v.1.15,2013-08-27 03:24:00,
2013-08-26 21:29:00,59.0,50.4,29.98,SE,141,0.0,0.0,73,0.00,,,0.09,Wunderground v.1.15,2013-08-27 03:29:00,
2013-08-26 21:34:00,58.8,50.5,29.98,SE,141,0.0,0.0,74,0.00,,,0.09,Wunderground v.1.15,2013-08-27 03:34:00,
2013-08-26 21:39:00,58.8,50.5,29.98,SE,141,0.0,0.0,74,0.00,,,0.09,Wunderground v.1.15,2013-08-27 03:39:00,
2013-08-26 21:49:00,58.7,51.2,29.98,SE,141,0.0,0.0,76,0.00,,,0.09,Wunderground v.1.15,2013-08-27 03:49:00,
2013-08-26 21:54:00,58.5,50.6,29.99,SE,141,0.0,0.0,75,0.00,,,0.09,Wunderground v.1.15,2013-08-27 03:54:00,
2013-08-26 22:04:00,58.2,51.0,29.99,SE,141,0.0,0.0,77,0.00,,,0.09,Wunderground v.1.15,2013-08-27 04:04:00,
2013-08-26 22:09:00,58.0,51.2,29.99,SE,141,0.0,0.0,78,0.00,,,0.09,Wunderground v.1.15,2013-08-27 04:09:00,
2013-08-26 22:14:00,57.8,50.6,29.99,SE,141,0.0,0.0,77,0.00,,,0.09,Wunderground v.1.15,2013-08-27 04:14:00,
2013-08-26 22:19:00,57.6,50.1,29.99,SE,141,0.0,0.0,76,0.00,,,0.09,Wunderground v.1.15,2013-08-27 04:19:00,
2013-08-26 22:24:00,57.4,49.9,29.99,SE,141,0.0,0.0,76,0.00,,,0.09,Wunderground v.1.15,2013-08-27 04:24:00,
2013-08-26 22:29:00,57.3,51.2,29.99,SE,141,0.0,0.0,80,0.00,,,0.09,Wunderground v.1.15,2013-08-27 04:29:00,
2013-08-26 22:34:00,57.1,51.0,29.99,SE,141,0.0,0.0,80,0.00,,,0.09,Wunderground v.1.15,2013-08-27 04:34:00,
2013-08-26 22:39:00,56.8,50.4,29.99,SE,141,0.0,0.0,79,0.00,,,0.09,Wunderground v.1.15,2013-08-27 04:39:00,
2013-08-26 22:49:00,56.6,50.8,29.99,SE,141,0.0,0.0,81,0.00,,,0.09,Wunderground v.1.15,2013-08-27 04:49:00,
2013-08-26 22:54:00,56.4,51.0,29.99,SE,141,0.0,0.0,82,0.00,,,0.09,Wunderground v.1.15,2013-08-27 04:54:00,
2013-08-26 23:04:00,56.1,50.7,29.99,SE,141,0.0,0.0,82,0.00,,,0.09,Wunderground v.1.15,2013-08-27 05:04:00,
2013-08-26 23:09:00,55.8,50.4,29.99,SE,141,0.0,0.0,82,0.00,,,0.09,Wunderground v.1.15,2013-08-27 05:09:00,
2013-08-26 23:14:00,55.7,50.6,30.00,SE,141,0.0,0.0,83,0.00,,,0.09,Wunderground v.1.15,2013-08-27 05:14:00,
2013-08-26 23:24:00,55.5,50.7,29.99,SE,141,0.0,0.0,84,0.00,,,0.09,Wunderground v.1.15,2013-08-27 05:24:00,
2013-08-26 23:29:00,55.4,50.6,29.99,SE,141,0.0,0.0,84,0.00,,,0.09,Wunderground v.1.15,2013-08-27 05:29:00,
2013-08-26 23:34:00,55.3,50.9,29.99,SE,141,0.0,0.0,85,0.00,,,0.09,Wunderground v.1.15,2013-08-27 05:34:00,
2013-08-26 23:44:00,55.2,50.8,29.99,SE,141,0.0,0.0,85,0.00,,,0.09,Wunderground v.1.15,2013-08-27 05:44:00,
2013-08-26 23:49:00,55.1,51.0,29.99,SE,141,0.0,0.0,86,0.00,,,0.09,Wunderground v.1.15,2013-08-27 05:49:00,
2013-08-26 23:54:00,55.1,50.7,29.99,SE,141,0.0,0.0,85,0.00,,,0.09,Wunderground v.1.15,2013-08-27 05:54:00,
2013-08-26 23:59:00,55.0,50.9,29.98,SE,141,0.0,0.0,86,0.00,,,0.09,Wunderground v.1.15,2013-08-27 05:59:00,